Portada
METAR-TAF:

METAR-TAF

Aeroports :

Aeroport de La Palma

La Palma, Espanya

latitud: 28-37N, longitud: 017-45W, altitud: 29 m

Observació

L'informe es va fer fa 31 minuts, a les 01:00 UTC
Vent 11 kt del Nord
Temperatura 23°C
Humitat 78%
Pressió 1018 hPa
Visibilitat 10 km o més
sense núvols per sota de 1500 mi sense presència de cumulonimbus.

METAR: GCLA 150100Z AUTO 01011KT CAVOK 23/19 Q1018

Hora: 02:31 (01:31 UTC)

Pronòstic

L'informe es va fer fa 5 hores i 31 minuts, a les 20:00 UTC
Pronòstic vàlid del 14 a les 21 UTC al 15 a les 21 UTC
Vent 11 kt del Nord
Visibilitat 10 km o més
Cel ennuvolat a una alçada de 2500 ft

TAF: GCLA 142000Z 1421/1521 36011KT 9999 BKN025 TX26/1514Z TN21/1506Z

Observacions i pronòstics meteorològics de més de 4000 aeroports (METAR i TAF).

Les estacions disponibles són els punts grocs i vermells al mapa.

Posi el ratolí al punt desitjat per veure el nom de l'estació.

Feu clic per veure les observacions i els pronòstics meteorològics.

Per canviar el mapa: feu clic els botons verds amb una creu de color negre per apropar; al botó verd amb un guió per allunyar la imatge; o en les fletxes verdes per a mapes adjacents.


METAR-TAF: